Time;durP1;ratioP1;P1;durP2;ratioP2;P2;SDS_P1;SDS_P2;PMS_P1;PMS_P2;Temp;Humidity;BMP_temperature;BMP_pressure;BME280_temperature;BME280_humidity;BME280_pressure;Samples;Min_cycle;Max_cycle;Signal;HPM_P1;HPM_P2
2022/09/09 00:01:57;;;;;;;2.83;0.77;;;15.70;99.90;;;;;;12429472;28;20045;-36
2022/09/09 00:08:03;;;;;;;4.30;0.95;;;15.60;99.90;;;;;;12422122;28;20375;-36
2022/09/09 00:14:14;;;;;;;2.88;0.70;;;15.60;99.90;;;;;;12437698;28;20103;-37
2022/09/09 00:20:33;;;;;;;3.38;0.70;;;15.60;99.90;;;;;;12431814;28;20072;-36
2022/09/09 00:26:48;;;;;;;2.30;0.63;;;15.70;99.90;;;;;;12435773;28;20046;-37
2022/09/09 00:32:58;;;;;;;3.33;0.68;;;15.60;99.90;;;;;;12418987;28;20052;-36
2022/09/09 00:39:02;;;;;;;4.68;0.70;;;15.70;99.90;;;;;;12428508;28;20133;-37
2022/09/09 00:45:43;;;;;;;2.60;0.50;;;15.70;99.90;;;;;;12429867;28;20100;-36
2022/09/09 00:52:06;;;;;;;5.70;0.90;;;15.70;99.90;;;;;;12433229;28;20049;-36
2022/09/09 00:58:09;;;;;;;3.97;0.82;;;15.70;99.90;;;;;;12428022;28;20058;-36
2022/09/09 01:04:22;;;;;;;3.33;0.70;;;15.70;99.90;;;;;;12430944;28;20049;-36
2022/09/09 01:10:49;;;;;;;3.60;0.80;;;15.70;99.90;;;;;;12436312;28;20042;-37
2022/09/09 01:16:56;;;;;;;1.40;0.60;;;15.50;99.90;;;;;;12428315;28;20065;-37
2022/09/09 01:23:22;;;;;;;4.63;0.85;;;15.50;99.90;;;;;;12437421;28;20417;-36
2022/09/09 01:29:25;;;;;;;5.68;1.35;;;15.50;99.90;;;;;;12439187;28;20046;-37
2022/09/09 01:35:54;;;;;;;3.00;0.88;;;15.50;99.90;;;;;;12434409;28;20057;-36
2022/09/09 01:41:57;;;;;;;5.40;1.23;;;15.40;99.90;;;;;;12435018;28;20045;-36
2022/09/09 01:48:00;;;;;;;4.60;0.82;;;15.30;99.90;;;;;;12433948;28;20060;-37
2022/09/09 01:54:02;;;;;;;5.13;1.10;;;15.30;99.90;;;;;;12439380;28;20049;-37
2022/09/09 02:00:09;;;;;;;3.30;0.82;;;15.40;99.90;;;;;;12434067;28;20057;-37
2022/09/09 02:06:26;;;;;;;5.97;0.90;;;15.40;99.90;;;;;;12410104;28;20041;-37
2022/09/09 02:12:30;;;;;;;4.75;1.00;;;15.50;99.90;;;;;;12433731;28;20502;-36
2022/09/09 02:18:50;;;;;;;7.50;1.17;;;15.50;99.90;;;;;;12425095;28;20539;-36
2022/09/09 02:24:55;;;;;;;4.15;0.90;;;15.50;99.90;;;;;;12437483;28;20077;-36
2022/09/09 02:30:58;;;;;;;4.22;1.15;;;15.50;99.90;;;;;;12433580;28;20049;-36
2022/09/09 02:37:03;;;;;;;6.68;1.23;;;15.50;99.90;;;;;;12424421;28;20107;-36
2022/09/09 02:43:06;;;;;;;2.53;0.88;;;15.50;99.90;;;;;;12421716;28;20414;-37
2022/09/09 02:49:11;;;;;;;5.38;0.90;;;15.50;99.90;;;;;;12418136;28;20410;-36
2022/09/09 02:55:45;;;;;;;3.05;0.90;;;15.50;99.90;;;;;;12414122;28;20049;-36
2022/09/09 03:01:47;;;;;;;2.13;0.80;;;15.50;99.90;;;;;;12402376;28;20093;-37
2022/09/09 03:07:50;;;;;;;2.13;0.80;;;15.50;99.90;;;;;;12420396;28;20308;-36
2022/09/09 03:13:52;;;;;;;3.88;0.80;;;15.60;99.90;;;;;;12412303;28;20042;-36
2022/09/09 03:19:55;;;;;;;2.40;0.63;;;15.60;99.90;;;;;;12405682;28;20537;-38
2022/09/09 03:25:58;;;;;;;4.20;1.00;;;15.60;99.90;;;;;;12394466;28;20056;-36
2022/09/09 03:32:00;;;;;;;3.37;1.00;;;15.50;99.90;;;;;;12400366;28;20069;-36
2022/09/09 03:38:02;;;;;;;2.90;0.90;;;15.50;99.90;;;;;;12421246;28;20053;-36
2022/09/09 03:44:03;;;;;;;4.35;1.10;;;15.50;99.90;;;;;;12417837;28;20053;-36
2022/09/09 03:50:09;;;;;;;3.60;1.10;;;15.50;99.90;;;;;;12411917;28;20621;-37
2022/09/09 03:56:10;;;;;;;5.10;1.17;;;15.50;99.90;;;;;;12380741;28;20429;-36
2022/09/09 04:02:12;;;;;;;3.22;1.00;;;15.50;99.90;;;;;;12414135;28;20046;-38
2022/09/09 04:08:14;;;;;;;5.93;1.20;;;15.50;99.90;;;;;;12400198;28;20458;-37
2022/09/09 04:14:16;;;;;;;4.80;1.10;;;15.50;99.90;;;;;;12390230;28;20062;-36
2022/09/09 04:20:19;;;;;;;4.13;1.02;;;15.50;99.90;;;;;;12426432;28;20077;-36
2022/09/09 04:26:21;;;;;;;4.63;1.10;;;15.40;99.90;;;;;;12432232;28;20049;-37
2022/09/09 04:32:23;;;;;;;5.18;0.98;;;15.50;99.90;;;;;;12408665;28;20042;-37
2022/09/09 04:38:25;;;;;;;2.40;0.88;;;15.50;99.90;;;;;;12411406;28;20043;-36
2022/09/09 04:44:27;;;;;;;5.45;0.93;;;15.50;99.90;;;;;;12423325;28;20461;-37
2022/09/09 04:50:29;;;;;;;3.85;1.02;;;15.50;99.90;;;;;;12423781;28;20537;-36
2022/09/09 04:56:31;;;;;;;5.35;1.05;;;15.50;99.90;;;;;;12422321;28;20077;-36
2022/09/09 05:02:36;;;;;;;4.05;0.90;;;15.40;99.90;;;;;;12419094;28;20046;-36
2022/09/09 05:08:39;;;;;;;4.45;0.95;;;15.50;99.90;;;;;;12419993;28;20049;-36
2022/09/09 05:14:41;;;;;;;8.43;1.48;;;15.40;99.90;;;;;;12421513;28;20064;-37
2022/09/09 05:20:43;;;;;;;4.85;1.55;;;15.30;99.90;;;;;;12400963;28;20441;-37
2022/09/09 05:26:45;;;;;;;6.68;1.10;;;15.10;99.90;;;;;;12406279;28;20509;-37
2022/09/09 05:32:48;;;;;;;5.45;1.50;;;14.90;99.90;;;;;;12414911;28;20410;-37
2022/09/09 05:38:53;;;;;;;5.65;1.70;;;14.90;99.90;;;;;;12428207;28;20072;-37
2022/09/09 05:44:55;;;;;;;5.20;1.67;;;14.80;99.90;;;;;;12417006;28;20402;-37
2022/09/09 05:50:58;;;;;;;4.93;1.70;;;14.80;99.90;;;;;;12422241;28;20076;-37
2022/09/09 05:57:00;;;;;;;7.00;1.95;;;14.90;99.90;;;;;;12412022;28;20250;-37
2022/09/09 06:03:01;;;;;;;5.97;1.83;;;14.90;99.90;;;;;;12422121;28;20425;-37
2022/09/09 06:09:06;;;;;;;5.82;1.67;;;14.80;99.90;;;;;;12418534;28;20423;-37
2022/09/09 06:15:09;;;;;;;5.72;1.60;;;14.90;99.90;;;;;;12414952;28;20046;-37
2022/09/09 06:21:16;;;;;;;8.55;1.65;;;15.00;99.90;;;;;;12429302;28;20045;-37
2022/09/09 06:27:18;;;;;;;4.70;1.83;;;15.10;99.90;;;;;;12438545;28;20512;-37
2022/09/09 06:33:20;;;;;;;4.65;1.60;;;15.30;99.90;;;;;;12421413;28;20417;-37
2022/09/09 06:39:22;;;;;;;7.22;1.55;;;15.50;99.90;;;;;;12416540;28;20054;-37
2022/09/09 06:45:24;;;;;;;4.15;1.63;;;15.70;99.90;;;;;;12422158;28;20073;-37
2022/09/09 06:51:31;;;;;;;9.13;1.90;;;15.90;99.90;;;;;;12398013;28;20494;-37
2022/09/09 06:57:33;;;;;;;6.80;1.70;;;16.00;99.90;;;;;;12414691;28;20060;-37
2022/09/09 07:03:39;;;;;;;5.75;1.30;;;16.10;99.90;;;;;;12412478;28;20593;-37
2022/09/09 07:09:41;;;;;;;5.63;1.48;;;16.40;99.90;;;;;;12419163;28;20138;-38
2022/09/09 07:15:43;;;;;;;4.10;1.45;;;16.60;99.90;;;;;;12410121;28;20517;-37
2022/09/09 07:21:45;;;;;;;6.75;1.40;;;16.80;99.90;;;;;;12406852;28;20092;-37
2022/09/09 07:27:46;;;;;;;7.20;1.58;;;17.00;99.90;;;;;;12388569;28;20041;-37
2022/09/09 07:33:48;;;;;;;3.83;1.73;;;17.10;99.90;;;;;;12413107;28;20053;-37
2022/09/09 07:39:51;;;;;;;4.20;1.33;;;17.10;99.90;;;;;;12411458;28;20084;-36
2022/09/09 07:45:58;;;;;;;7.10;1.30;;;17.20;99.90;;;;;;12414444;28;20042;-37
2022/09/09 07:52:00;;;;;;;4.15;1.30;;;17.30;99.90;;;;;;12412113;28;20060;-38
2022/09/09 07:58:02;;;;;;;6.35;1.25;;;17.20;99.90;;;;;;12408223;28;20080;-37
2022/09/09 08:04:06;;;;;;;3.80;1.00;;;17.30;99.90;;;;;;12405406;28;20068;-38
2022/09/09 08:10:09;;;;;;;4.95;1.00;;;17.20;99.90;;;;;;12413777;28;20049;-37
2022/09/09 08:16:18;;;;;;;3.15;1.00;;;17.20;99.90;;;;;;12407637;28;20465;-37
2022/09/09 08:22:21;;;;;;;3.40;1.00;;;17.30;99.90;;;;;;12425667;28;20073;-37
2022/09/09 08:28:24;;;;;;;4.75;1.63;;;17.30;99.90;;;;;;12437887;28;20410;-36
2022/09/09 08:34:27;;;;;;;4.85;1.10;;;17.30;99.90;;;;;;12411902;28;20472;-37
2022/09/09 08:40:37;;;;;;;8.73;1.40;;;17.30;99.90;;;;;;12409630;28;20452;-37
2022/09/09 08:47:01;;;;;;;7.70;1.30;;;17.50;99.90;;;;;;12398068;28;20470;-38
2022/09/09 08:53:21;;;;;;;5.90;1.20;;;17.60;99.90;;;;;;12405891;28;20045;-37
2022/09/09 08:59:23;;;;;;;5.90;1.10;;;17.80;99.90;;;;;;12416340;28;20386;-37
2022/09/09 09:06:10;;;;;;;5.25;1.23;;;17.80;99.90;;;;;;12404192;28;20046;-36
2022/09/09 09:12:21;;;;;;;7.20;1.35;;;18.20;99.90;;;;;;12397925;28;20053;-37
2022/09/09 09:18:23;;;;;;;6.00;1.42;;;18.40;99.90;;;;;;12410447;28;20462;-37
2022/09/09 09:24:37;;;;;;;7.68;1.50;;;18.40;99.90;;;;;;12380857;28;20450;-38
2022/09/09 09:30:45;;;;;;;;;;;18.50;99.90;;;;;;12402376;28;20061;-37
2022/09/09 09:36:58;;;;;;;7.07;1.58;;;18.40;99.90;;;;;;12416258;28;20119;-37
2022/09/09 09:43:01;;;;;;;7.78;1.50;;;18.20;99.90;;;;;;12420500;28;20054;-37
2022/09/09 09:49:05;;;;;;;6.85;1.33;;;17.80;99.90;;;;;;12421371;28;20045;-37
2022/09/09 09:55:13;;;;;;;7.03;1.50;;;18.30;99.90;;;;;;12418222;28;20145;-37
2022/09/09 10:01:32;;;;;;;7.45;1.20;;;18.60;99.90;;;;;;12417524;28;20049;-37
2022/09/09 10:07:37;;;;;;;6.25;1.02;;;19.00;99.90;;;;;;12416587;28;20365;-38
2022/09/09 10:14:18;;;;;;;10.48;1.38;;;19.50;99.90;;;;;;12410591;28;20101;-37
2022/09/09 10:20:44;;;;;;;4.80;1.13;;;19.80;99.90;;;;;;12404937;28;20107;-37
2022/09/09 10:27:13;;;;;;;4.53;0.82;;;20.20;99.90;;;;;;12424193;28;20092;-37
2022/09/09 10:33:19;;;;;;;3.30;0.85;;;19.30;99.90;;;;;;12419308;28;20459;-37
2022/09/09 10:39:24;;;;;;;5.82;1.02;;;18.90;99.90;;;;;;12404069;28;20054;-37
2022/09/09 10:45:39;;;;;;;4.22;1.20;;;18.60;99.90;;;;;;12422575;28;20099;-38
2022/09/09 10:51:42;;;;;;;;;;;18.50;99.90;;;;;;12418849;28;20420;-37
2022/09/09 10:57:49;;;;;;;4.32;1.13;;;19.00;99.90;;;;;;12409767;28;19975;-36
2022/09/09 11:04:05;;;;;;;3.45;0.75;;;19.80;99.90;;;;;;12414228;28;20042;-37
2022/09/09 11:10:19;;;;;;;3.92;0.90;;;20.50;99.90;;;;;;12421224;28;20474;-37
2022/09/09 11:16:41;;;;;;;3.03;0.75;;;20.30;99.90;;;;;;12379257;28;20050;-36
2022/09/09 11:22:53;;;;;;;5.38;0.98;;;20.30;99.90;;;;;;12400307;28;20065;-39
2022/09/09 11:29:28;;;;;;;4.70;1.08;;;20.30;99.90;;;;;;12408182;28;20076;-37
2022/09/09 11:35:56;;;;;;;6.47;1.33;;;20.30;99.90;;;;;;12409156;28;20096;-37
2022/09/09 11:42:08;;;;;;;5.78;1.10;;;20.80;99.90;;;;;;12406579;28;20049;-38
2022/09/09 11:48:27;;;;;;;5.35;1.10;;;21.40;99.90;;;;;;12413765;28;20050;-38
2022/09/09 11:54:31;;;;;;;6.10;1.05;;;21.80;99.90;;;;;;12412445;28;20072;-37
2022/09/09 12:00:48;;;;;;;5.65;1.20;;;22.00;99.90;;;;;;12406874;28;20042;-37
2022/09/09 12:06:57;;;;;;;4.30;1.42;;;21.90;99.90;;;;;;12417382;28;20046;-41
2022/09/09 12:13:15;;;;;;;7.78;1.20;;;21.70;99.90;;;;;;12412793;28;20394;-37
2022/09/09 12:19:22;;;;;;;3.28;0.70;;;21.90;99.90;;;;;;12408531;28;20058;-38
2022/09/09 12:25:45;;;;;;;5.32;1.10;;;22.40;99.90;;;;;;12424582;28;20045;-36
2022/09/09 12:31:58;;;;;;;6.07;0.98;;;22.00;99.90;;;;;;12432907;28;20056;-37
2022/09/09 12:38:02;;;;;;;2.92;0.80;;;22.10;99.90;;;;;;12419315;28;20050;-38
2022/09/09 12:44:06;;;;;;;5.07;0.90;;;22.00;99.90;;;;;;12433225;28;20042;-37
2022/09/09 12:50:48;;;;;;;3.75;1.23;;;22.00;99.90;;;;;;12434195;28;20042;-38
2022/09/09 12:56:50;;;;;;;3.53;0.60;;;22.40;99.90;;;;;;12384907;28;20062;-37
2022/09/09 13:02:58;;;;;;;3.05;0.73;;;22.80;99.90;;;;;;12417608;28;20452;-39
2022/09/09 13:09:02;;;;;;;4.32;1.05;;;22.40;99.90;;;;;;12443886;28;20054;-38
2022/09/09 13:15:10;;;;;;;5.13;0.80;;;21.70;99.90;;;;;;12417231;28;20053;-39
2022/09/09 13:21:14;;;;;;;4.88;1.00;;;21.40;99.90;;;;;;12420311;28;20410;-40
2022/09/09 13:27:39;;;;;;;4.10;0.73;;;21.40;99.90;;;;;;12428886;28;20042;-39
2022/09/09 13:33:41;;;;;;;2.15;0.60;;;21.40;99.90;;;;;;12434327;28;20045;-39
2022/09/09 13:39:55;;;;;;;3.28;0.63;;;21.60;99.90;;;;;;12437200;28;20049;-40
2022/09/09 13:46:22;;;;;;;4.05;0.80;;;21.10;99.90;;;;;;12428541;28;20046;-41
2022/09/09 13:52:30;;;;;;;4.40;1.00;;;20.90;99.90;;;;;;12429781;28;20058;-39
2022/09/09 13:58:32;;;;;;;3.67;0.75;;;20.80;99.90;;;;;;12439384;28;20049;-37
2022/09/09 14:04:34;;;;;;;2.75;0.60;;;20.80;99.90;;;;;;12434035;28;20037;-37
2022/09/09 14:10:36;;;;;;;2.55;0.70;;;21.40;99.90;;;;;;12436701;28;20045;-38
2022/09/09 14:16:38;;;;;;;2.28;0.70;;;21.60;99.90;;;;;;12436324;28;20073;-39
2022/09/09 14:22:40;;;;;;;3.30;0.85;;;21.20;99.90;;;;;;12436685;28;20081;-40
2022/09/09 14:28:42;;;;;;;4.15;0.80;;;21.00;99.90;;;;;;12435671;28;20099;-37
2022/09/09 14:35:00;;;;;;;4.18;0.75;;;21.40;99.90;;;;;;12422788;28;20078;-37
2022/09/09 14:41:03;;;;;;;2.80;0.60;;;21.70;99.90;;;;;;12416839;28;20046;-37
2022/09/09 14:47:07;;;;;;;5.30;0.60;;;21.60;99.90;;;;;;12434393;28;20050;-37
2022/09/09 14:53:10;;;;;;;3.92;0.70;;;21.30;99.90;;;;;;12424889;28;20050;-38
2022/09/09 14:59:12;;;;;;;2.42;0.52;;;21.70;99.90;;;;;;12430838;28;20766;-37
2022/09/09 15:05:16;;;;;;;2.87;0.73;;;21.70;99.90;;;;;;12422596;28;20046;-37
2022/09/09 15:11:18;;;;;;;2.47;0.65;;;21.60;99.90;;;;;;12435824;28;20053;-37
2022/09/09 15:17:20;;;;;;;3.22;0.70;;;21.20;99.90;;;;;;12429003;28;20049;-38
2022/09/09 15:23:22;;;;;;;2.33;0.50;;;20.90;99.90;;;;;;12435384;28;20442;-37
2022/09/09 15:29:24;;;;;;;3.83;0.70;;;20.80;99.90;;;;;;12435971;28;20056;-37
2022/09/09 15:35:26;;;;;;;4.03;0.77;;;20.60;99.90;;;;;;12434277;28;20083;-38
2022/09/09 15:41:31;;;;;;;3.72;0.50;;;20.60;99.90;;;;;;12429674;28;20049;-37
2022/09/09 15:47:33;;;;;;;3.05;0.60;;;20.50;99.90;;;;;;12433487;28;20050;-37
2022/09/09 15:53:35;;;;;;;3.10;0.73;;;20.50;99.90;;;;;;12436368;28;20053;-37
2022/09/09 15:59:36;;;;;;;4.50;1.00;;;20.60;99.90;;;;;;12435403;28;20452;-38
2022/09/09 16:05:38;;;;;;;3.92;0.73;;;21.10;99.90;;;;;;12422082;28;20049;-37
2022/09/09 16:11:40;;;;;;;4.05;0.68;;;21.20;99.90;;;;;;12433885;28;20172;-37
2022/09/09 16:17:42;;;;;;;5.03;0.73;;;20.70;99.90;;;;;;12431488;28;20474;-37
2022/09/09 16:23:45;;;;;;;3.95;0.98;;;20.40;99.90;;;;;;12431710;28;20414;-37
2022/09/09 16:29:47;;;;;;;4.88;0.88;;;20.30;99.90;;;;;;12438380;28;20410;-37
2022/09/09 16:35:49;;;;;;;4.70;0.80;;;20.40;99.90;;;;;;12429940;28;20050;-37
2022/09/09 16:41:52;;;;;;;4.35;0.93;;;20.30;99.90;;;;;;12425626;28;20482;-37
2022/09/09 16:47:54;;;;;;;6.13;0.80;;;20.30;99.90;;;;;;12429299;28;20340;-38
2022/09/09 16:53:58;;;;;;;2.72;0.65;;;20.10;99.90;;;;;;12437867;28;20409;-37
2022/09/09 17:00:00;;;;;;;4.40;1.02;;;20.00;99.90;;;;;;12435983;28;20096;-37
2022/09/09 17:06:03;;;;;;;3.87;0.80;;;19.90;99.90;;;;;;12433493;28;20050;-38
2022/09/09 17:12:06;;;;;;;6.22;1.15;;;19.60;99.90;;;;;;12415877;28;20054;-37
2022/09/09 17:18:12;;;;;;;3.47;1.10;;;17.70;99.90;;;;;;12428472;28;20058;-38
2022/09/09 17:24:15;;;;;;;4.80;0.90;;;17.10;99.90;;;;;;12424138;28;20041;-37
2022/09/09 17:30:17;;;;;;;4.60;0.90;;;16.90;99.90;;;;;;12429047;28;20046;-37
2022/09/09 17:36:24;;;;;;;3.67;0.80;;;16.70;99.90;;;;;;12437913;28;20080;-36
2022/09/09 17:42:26;;;;;;;4.82;0.70;;;16.50;99.90;;;;;;12427222;28;20294;-38
2022/09/09 17:48:30;;;;;;;3.10;0.43;;;16.30;99.90;;;;;;12423027;28;20058;-36
2022/09/09 17:54:33;;;;;;;3.67;1.08;;;16.20;99.90;;;;;;12420172;28;20386;-37
2022/09/09 18:00:36;;;;;;;4.63;1.13;;;16.10;99.90;;;;;;12431622;28;20049;-37
2022/09/09 18:06:41;;;;;;;4.70;1.42;;;16.20;99.90;;;;;;12435005;28;20046;-37
2022/09/09 18:12:43;;;;;;;2.35;0.90;;;16.10;99.90;;;;;;12429721;28;20402;-37
2022/09/09 18:18:45;;;;;;;4.40;1.00;;;16.10;99.90;;;;;;12429636;28;20054;-37
2022/09/09 18:24:49;;;;;;;5.50;0.90;;;16.20;99.90;;;;;;12436523;28;20099;-38
2022/09/09 18:30:52;;;;;;;3.83;0.70;;;16.30;99.90;;;;;;12440511;28;20050;-37
2022/09/09 18:36:54;;;;;;;2.17;0.63;;;16.30;99.90;;;;;;12431784;28;21082;-37
2022/09/09 18:42:57;;;;;;;3.03;0.85;;;16.40;99.90;;;;;;12437455;28;20050;-37
2022/09/09 18:48:59;;;;;;;3.45;0.73;;;16.50;99.90;;;;;;12435386;28;20046;-37
2022/09/09 18:55:00;;;;;;;6.47;1.00;;;16.40;99.90;;;;;;12440250;28;20461;-37
2022/09/09 19:01:05;;;;;;;4.55;1.00;;;16.30;99.90;;;;;;12439600;28;20082;-37
2022/09/09 19:07:07;;;;;;;2.10;0.70;;;16.30;99.90;;;;;;12433224;28;20061;-37
2022/09/09 19:13:09;;;;;;;4.93;1.10;;;16.30;99.90;;;;;;12437135;28;20042;-37
2022/09/09 19:19:17;;;;;;;1.77;0.70;;;16.30;99.90;;;;;;12426229;28;20062;-37
2022/09/09 19:25:19;;;;;;;3.70;0.95;;;16.30;99.90;;;;;;12431685;28;20414;-36
2022/09/09 19:31:22;;;;;;;2.75;0.80;;;16.30;99.90;;;;;;12434916;28;20058;-37
2022/09/09 19:37:24;;;;;;;2.05;0.70;;;16.30;99.90;;;;;;12437699;28;20091;-37
2022/09/09 19:43:26;;;;;;;2.17;0.80;;;16.10;99.90;;;;;;12429420;28;20474;-37
2022/09/09 19:49:29;;;;;;;2.63;0.82;;;16.00;99.90;;;;;;12436375;28;20050;-37
2022/09/09 19:55:31;;;;;;;3.90;1.05;;;15.90;99.90;;;;;;12433584;28;20045;-36
2022/09/09 20:01:35;;;;;;;2.63;1.00;;;15.80;99.90;;;;;;12426780;28;20049;-36
2022/09/09 20:07:41;;;;;;;4.20;1.10;;;15.80;99.90;;;;;;12425440;28;20061;-36
2022/09/09 20:13:43;;;;;;;3.53;1.00;;;15.70;99.90;;;;;;12423523;28;20046;-37
2022/09/09 20:19:45;;;;;;;2.40;0.80;;;15.70;99.90;;;;;;12425241;28;20046;-36
2022/09/09 20:25:46;;;;;;;3.30;1.00;;;15.70;99.90;;;;;;12427978;28;20049;-37
2022/09/09 20:31:48;;;;;;;5.07;0.90;;;15.70;99.90;;;;;;12431214;28;20050;-37
2022/09/09 20:37:50;;;;;;;2.33;0.90;;;15.70;99.90;;;;;;12433209;28;20181;-37
2022/09/09 20:43:53;;;;;;;3.47;0.88;;;15.70;99.90;;;;;;12424970;28;20057;-37
2022/09/09 20:49:54;;;;;;;2.45;1.00;;;15.80;99.90;;;;;;12432806;28;20061;-37
2022/09/09 20:56:01;;;;;;;5.53;1.35;;;15.80;99.90;;;;;;12431840;28;20045;-36
2022/09/09 21:02:03;;;;;;;1.35;0.80;;;15.70;99.90;;;;;;12426005;28;20052;-37
2022/09/09 21:08:05;;;;;;;2.58;0.90;;;15.80;99.90;;;;;;12427348;28;20072;-36
2022/09/09 21:14:07;;;;;;;1.92;0.90;;;15.80;99.90;;;;;;12428588;28;20038;-36
2022/09/09 21:20:09;;;;;;;2.38;1.00;;;15.70;99.90;;;;;;12422045;28;20050;-37
2022/09/09 21:26:11;;;;;;;2.38;0.80;;;15.70;99.90;;;;;;12438803;28;20072;-38
2022/09/09 21:32:13;;;;;;;3.17;1.10;;;15.60;99.90;;;;;;12440111;28;20037;-36
2022/09/09 21:38:21;;;;;;;3.08;1.13;;;15.60;99.90;;;;;;12442075;28;20065;-36
2022/09/09 21:44:22;;;;;;;2.22;0.73;;;15.50;99.90;;;;;;12425422;28;20046;-36
2022/09/09 21:50:25;;;;;;;3.58;0.68;;;15.60;99.90;;;;;;12444088;28;20049;-37
2022/09/09 21:56:29;;;;;;;3.55;1.10;;;15.50;99.90;;;;;;12441399;28;20050;-36
2022/09/09 22:02:31;;;;;;;2.10;0.70;;;15.50;99.90;;;;;;12434356;28;20049;-37
2022/09/09 22:08:34;;;;;;;4.07;0.80;;;15.60;99.90;;;;;;12425737;28;20050;-36
2022/09/09 22:14:36;;;;;;;2.92;0.60;;;15.50;99.90;;;;;;12439437;28;20077;-36
2022/09/09 22:20:41;;;;;;;2.67;0.85;;;15.60;99.90;;;;;;12434429;28;20533;-36
2022/09/09 22:26:43;;;;;;;2.67;0.77;;;15.60;99.90;;;;;;12444852;28;20049;-36
2022/09/09 22:32:45;;;;;;;2.25;0.70;;;15.60;99.90;;;;;;12436485;28;20065;-37
2022/09/09 22:38:48;;;;;;;4.00;0.90;;;15.50;99.90;;;;;;12440106;28;20056;-36
2022/09/09 22:44:49;;;;;;;3.65;0.90;;;15.50;99.90;;;;;;12432041;28;20095;-36
2022/09/09 22:50:52;;;;;;;2.47;0.70;;;15.50;99.90;;;;;;12434158;28;20058;-36
2022/09/09 22:56:54;;;;;;;5.32;2.05;;;15.50;99.90;;;;;;12439497;28;20639;-36
2022/09/09 23:02:56;;;;;;;3.70;1.00;;;15.50;99.90;;;;;;12433540;28;20053;-36
2022/09/09 23:09:01;;;;;;;3.90;0.82;;;15.50;99.90;;;;;;12437077;28;20085;-36
2022/09/09 23:15:08;;;;;;;2.92;0.95;;;15.40;99.90;;;;;;12432239;28;20050;-36
2022/09/09 23:21:13;;;;;;;3.42;1.17;;;15.50;99.90;;;;;;12429977;28;20498;-36
2022/09/09 23:27:15;;;;;;;5.97;1.10;;;15.50;99.90;;;;;;12439304;28;20050;-36
2022/09/09 23:33:17;;;;;;;2.10;0.70;;;15.40;99.90;;;;;;12434688;28;20091;-36
2022/09/09 23:39:19;;;;;;;3.90;1.00;;;15.40;99.90;;;;;;12430776;28;20060;-36
2022/09/09 23:45:21;;;;;;;3.55;1.00;;;15.40;99.90;;;;;;12436380;28;20068;-36
2022/09/09 23:51:26;;;;;;;5.93;1.05;;;15.50;99.90;;;;;;12433633;28;20808;-36
2022/09/09 23:57:28;;;;;;;3.10;0.90;;;15.50;99.90;;;;;;12436085;28;20171;-36
